Time;durP1;ratioP1;P1;durP2;ratioP2;P2;SDS_P1;SDS_P2;PMS_P1;PMS_P2;Temp;Humidity;BMP_temperature;BMP_pressure;BME280_temperature;BME280_humidity;BME280_pressure;Samples;Min_cycle;Max_cycle;Signal;HPM_P1;HPM_P2
2022/04/22 00:01:25;;;;;;;;;;;;;;;;;;5112516;28;19908;-53
2022/04/22 00:03:51;;;;;;;;;;;;;;;;;;5112586;28;19962;-55
2022/04/22 00:06:18;;;;;;;;;;;;;;;;;;5112331;28;19934;-53
2022/04/22 00:08:44;;;;;;;;;;;;;;;;;;5112890;28;20285;-54
2022/04/22 00:11:29;;;;;;;;;;;;;;;;;;5112627;28;20018;-54
2022/04/22 00:13:56;;;;;;;;;;;;;;;;;;5111809;28;19908;-49
2022/04/22 00:16:22;;;;;;;;;;;;;;;;;;5112107;28;19908;-50
2022/04/22 00:18:48;;;;;;;;;;;;;;;;;;5112499;28;19908;-49
2022/04/22 00:21:15;;;;;;;;;;;;;;;;;;5111477;28;19908;-56
2022/04/22 00:23:41;;;;;;;;;;;;;;;;;;5117069;28;19953;-54
2022/04/22 00:26:08;;;;;;;;;;;;;;;;;;5117431;28;20037;-46
2022/04/22 00:28:35;;;;;;;;;;;;;;;;;;5116981;28;20407;-44
2022/04/22 00:31:01;;;;;;;;;;;;;;;;;;5117110;28;19943;-44
2022/04/22 00:33:28;;;;;;;;;;;;;;;;;;5115677;28;20362;-48
2022/04/22 00:35:54;;;;;;;;;;;;;;;;;;5098696;28;20029;-51
2022/04/22 00:38:21;;;;;;;;;;;;;;;;;;5096115;28;20362;-50
2022/04/22 00:40:47;;;;;;;;;;;;;;;;;;5112014;28;19908;-47
2022/04/22 00:43:14;;;;;;;;;;;;;;;;;;5116282;28;19908;-47
2022/04/22 00:45:41;;;;;;;;;;;;;;;;;;5116632;27;19996;-53
2022/04/22 00:48:07;;;;;;;;;;;;;;;;;;5117082;28;19915;-44
2022/04/22 00:50:33;;;;;;;;;;;;;;;;;;5116695;28;19951;-52
2022/04/22 00:53:00;;;;;;;;;;;;;;;;;;5116601;28;19957;-47
2022/04/22 00:55:26;;;;;;;;;;;;;;;;;;5116713;28;19942;-45
2022/04/22 00:57:53;;;;;;;;;;;;;;;;;;5116503;28;19915;-48
2022/04/22 01:00:20;;;;;;;;;;;;;;;;;;5115557;28;19907;-50
2022/04/22 01:02:46;;;;;;;;;;;;;;;;;;5115961;28;19908;-56
2022/04/22 01:10:42;;;;;;;;;;;;;;;;;;5116160;28;19914;-54
2022/04/22 01:13:08;;;;;;;;;;;;;;;;;;5116144;28;20315;-53
2022/04/22 01:15:35;;;;;;;;;;;;;;;;;;5116023;28;20010;-56
2022/04/22 01:18:01;;;;;;;;;;;;;;;;;;5115686;28;19914;-46
2022/04/22 01:20:28;;;;;;;;;;;;;;;;;;5116211;28;19908;-44
2022/04/22 01:22:54;;;;;;;;;;;;;;;;;;5114912;28;20318;-47
2022/04/22 01:25:21;;;;;;;;;;;;;;;;;;5115701;28;19996;-55
2022/04/22 01:27:47;;;;;;;;;;;;;;;;;;5115334;28;19998;-51
2022/04/22 01:30:14;;;;;;;;;;;;;;;;;;5115746;28;19908;-54
2022/04/22 01:32:41;;;;;;;;;;;;;;;;;;5115666;28;19912;-53
2022/04/22 01:35:07;;;;;;;;;;;;;;;;;;5114967;28;20277;-44
2022/04/22 01:37:34;;;;;;;;;;;;;;;;;;5114768;28;19908;-46
2022/04/22 01:40:00;;;;;;;;;;;;;;;;;;5116227;28;19915;-49
2022/04/22 01:42:26;;;;;;;;;;;;;;;;;;5114894;28;19998;-53
2022/04/22 01:44:53;;;;;;;;;;;;;;;;;;5115240;27;19916;-57
2022/04/22 01:47:19;;;;;;;;;;;;;;;;;;5115565;28;19908;-52
2022/04/22 01:49:46;;;;;;;;;;;;;;;;;;5115685;28;19961;-45
2022/04/22 01:52:12;;;;;;;;;;;;;;;;;;5115508;28;19914;-51
2022/04/22 01:54:39;;;;;;;;;;;;;;;;;;5115523;27;19908;-51
2022/04/22 01:57:05;;;;;;;;;;;;;;;;;;5114704;28;19947;-53
2022/04/22 01:59:32;;;;;;;;;;;;;;;;;;5113958;28;20373;-43
2022/04/22 02:01:58;;;;;;;;;;;;;;;;;;5115828;28;20343;-46
2022/04/22 02:04:25;;;;;;;;;;;;;;;;;;5114960;28;20288;-50
2022/04/22 02:06:51;;;;;;;;;;;;;;;;;;5115353;28;19907;-55
2022/04/22 02:09:18;;;;;;;;;;;;;;;;;;5115061;28;19912;-50
2022/04/22 02:11:44;;;;;;;;;;;;;;;;;;5115208;28;20007;-50
2022/04/22 02:14:12;;;;;;;;;;;;;;;;;;5114773;28;19922;-46
2022/04/22 02:16:38;;;;;;;;;;;;;;;;;;5115118;28;19907;-53
2022/04/22 02:19:05;;;;;;;;;;;;;;;;;;5114382;28;19960;-49
2022/04/22 02:21:31;;;;;;;;;;;;;;;;;;5114890;28;19908;-42
2022/04/22 02:23:58;;;;;;;;;;;;;;;;;;5114150;28;19984;-51
2022/04/22 02:26:25;;;;;;;;;;;;;;;;;;5114595;28;19915;-53
2022/04/22 02:28:51;;;;;;;;;;;;;;;;;;5114395;28;20301;-45
2022/04/22 02:31:18;;;;;;;;;;;;;;;;;;5114959;28;19934;-45
2022/04/22 02:33:44;;;;;;;;;;;;;;;;;;5114740;28;19910;-51
2022/04/22 02:36:11;;;;;;;;;;;;;;;;;;5114781;28;20337;-47
2022/04/22 02:38:38;;;;;;;;;;;;;;;;;;5114632;28;19919;-51
2022/04/22 02:46:33;;;;;;;;;;;;;;;;;;5114566;28;19922;-51
2022/04/22 02:49:00;;;;;;;;;;;;;;;;;;5114829;28;19943;-52
2022/04/22 02:51:26;;;;;;;;;;;;;;;;;;5114275;28;19907;-52
2022/04/22 02:53:53;;;;;;;;;;;;;;;;;;5114606;28;19908;-51
2022/04/22 02:56:19;;;;;;;;;;;;;;;;;;5114258;28;19921;-50
2022/04/22 02:58:46;;;;;;;;;;;;;;;;;;5114254;28;20017;-50
2022/04/22 03:01:13;;;;;;;;;;;;;;;;;;5106520;28;19908;-52
2022/04/22 03:03:39;;;;;;;;;;;;;;;;;;5094068;28;19915;-42
2022/04/22 03:06:06;;;;;;;;;;;;;;;;;;5094113;28;20015;-42
2022/04/22 03:08:34;;;;;;;;;;;;;;;;;;5093359;28;19915;-46
2022/04/22 03:11:00;;;;;;;;;;;;;;;;;;5094075;28;19978;-40
2022/04/22 03:13:27;;;;;;;;;;;;;;;;;;5092787;28;19908;-49
2022/04/22 03:15:53;;;;;;;;;;;;;;;;;;5094164;28;19961;-47
2022/04/22 03:18:19;;;;;;;;;;;;;;;;;;5093431;28;19908;-53
2022/04/22 03:20:46;;;;;;;;;;;;;;;;;;5093487;28;19951;-53
2022/04/22 03:23:12;;;;;;;;;;;;;;;;;;5093059;28;19994;-48
2022/04/22 03:25:41;;;;;;;;;;;;;;;;;;5092941;28;19916;-49
2022/04/22 03:28:07;;;;;;;;;;;;;;;;;;5091787;28;19919;-47
2022/04/22 03:30:37;;;;;;;;;;;;;;;;;;5092839;28;20286;-43
2022/04/22 03:33:04;;;;;;;;;;;;;;;;;;5092954;28;19969;-48
2022/04/22 03:35:30;;;;;;;;;;;;;;;;;;5092945;28;19908;-49
2022/04/22 03:37:57;;;;;;;;;;;;;;;;;;5092909;28;20243;-48
2022/04/22 03:40:24;;;;;;;;;;;;;;;;;;5092296;28;19962;-54
2022/04/22 03:42:52;;;;;;;;;;;;;;;;;;5092696;28;19908;-49
2022/04/22 03:45:20;;;;;;;;;;;;;;;;;;5092839;28;19923;-45
2022/04/22 03:47:46;;;;;;;;;;;;;;;;;;5105226;28;19908;-53
2022/04/22 03:50:13;;;;;;;;;;;;;;;;;;5113062;28;20362;-52
2022/04/22 03:52:40;;;;;;;;;;;;;;;;;;5113090;28;19957;-53
2022/04/22 03:55:06;;;;;;;;;;;;;;;;;;5112707;28;19907;-47
2022/04/22 04:00:18;;;;;;;;;;;;;;;;;;5100568;28;20082;-49
2022/04/22 04:02:45;;;;;;;;;;;;;;;;;;5091038;28;19908;-48
2022/04/22 04:05:11;;;;;;;;;;;;;;;;;;5091682;28;19921;-49
2022/04/22 04:07:38;;;;;;;;;;;;;;;;;;5092637;28;19912;-49
2022/04/22 04:16:00;;;;;;;;;;;;;;;;;;5088766;28;20018;-55
2022/04/22 04:18:27;;;;;;;;;;;;;;;;;;5112455;28;19912;-51
2022/04/22 04:23:38;;;;;;;;;;;;;;;;;;5112851;28;19918;-50
2022/04/22 04:26:06;;;;;;;;;;;;;;;;;;5112688;28;19916;-57
2022/04/22 04:28:33;;;;;;;;;;;;;;;;;;5112741;28;19908;-51
2022/04/22 04:30:59;;;;;;;;;;;;;;;;;;5112661;28;20269;-47
2022/04/22 04:33:26;;;;;;;;;;;;;;;;;;5112831;28;19908;-48
2022/04/22 04:35:53;;;;;;;;;;;;;;;;;;5112864;28;20411;-49
2022/04/22 04:38:20;;;;;;;;;;;;;;;;;;5112537;28;20289;-48
2022/04/22 04:40:46;;;;;;;;;;;;;;;;;;5112701;28;19908;-51
2022/04/22 04:43:13;;;;;;;;;;;;;;;;;;5112369;28;19989;-50
2022/04/22 04:45:39;;;;;;;;;;;;;;;;;;5112822;28;19916;-42
2022/04/22 04:48:06;;;;;;;;;;;;;;;;;;5112378;28;19908;-54
2022/04/22 04:50:32;;;;;;;;;;;;;;;;;;5112251;28;19907;-48
2022/04/22 04:52:59;;;;;;;;;;;;;;;;;;5111969;28;19912;-49
2022/04/22 04:55:26;;;;;;;;;;;;;;;;;;5112227;28;19907;-53
2022/04/22 04:57:52;;;;;;;;;;;;;;;;;;5111842;28;19908;-50
2022/04/22 05:00:18;;;;;;;;;;;;;;;;;;5112727;28;19943;-56
2022/04/22 05:02:45;;;;;;;;;;;;;;;;;;5112721;28;19951;-48
2022/04/22 05:05:12;;;;;;;;;;;;;;;;;;5112010;28;19973;-53
2022/04/22 05:07:38;;;;;;;;;;;;;;;;;;5112103;28;19908;-53
2022/04/22 05:10:05;;;;;;;;;;;;;;;;;;5116704;28;19915;-46
2022/04/22 05:12:31;;;;;;;;;;;;;;;;;;5116219;28;19908;-53
2022/04/22 05:14:58;;;;;;;;;;;;;;;;;;5116534;28;19912;-51
2022/04/22 05:17:24;;;;;;;;;;;;;;;;;;5115574;28;19926;-47
2022/04/22 05:19:51;;;;;;;;;;;;;;;;;;5116168;28;19911;-48
2022/04/22 05:22:17;;;;;;;;;;;;;;;;;;5116183;28;20251;-51
2022/04/22 05:24:44;;;;;;;;;;;;;;;;;;5116349;28;20286;-54
2022/04/22 05:27:10;;;;;;;;;;;;;;;;;;5115674;28;19916;-51
2022/04/22 05:32:36;;;;;;;;;;;;;;;;;;5116525;28;19915;-52
2022/04/22 05:35:03;;;;;;;;;;;;;;;;;;5116239;28;20282;-42
2022/04/22 05:37:29;;;;;;;;;;;;;;;;;;5115450;28;20332;-52
2022/04/22 05:39:56;;;;;;;;;;;;;;;;;;5115494;28;20282;-46
2022/04/22 05:42:23;;;;;;;;;;;;;;;;;;5115690;28;19953;-49
2022/04/22 05:44:49;;;;;;;;;;;;;;;;;;5115643;28;19916;-56
2022/04/22 05:47:16;;;;;;;;;;;;;;;;;;5115321;28;19908;-49
2022/04/22 05:49:42;;;;;;;;;;;;;;;;;;5115332;28;19908;-43
2022/04/22 05:52:09;;;;;;;;;;;;;;;;;;5115327;28;19919;-46
2022/04/22 05:54:36;;;;;;;;;;;;;;;;;;5115181;28;19908;-54
2022/04/22 05:57:03;;;;;;;;;;;;;;;;;;5115286;28;19914;-42
2022/04/22 05:59:29;;;;;;;;;;;;;;;;;;5114983;28;19911;-53
2022/04/22 06:01:55;;;;;;;;;;;;;;;;;;5115362;28;19907;-49
2022/04/22 06:04:22;;;;;;;;;;;;;;;;;;5114684;28;20294;-53
2022/04/22 06:06:48;;;;;;;;;;;;;;;;;;5115831;27;19961;-51
2022/04/22 06:12:00;;;;;;;;;;;;;;;;;;5114958;28;19933;-51
2022/04/22 06:14:26;;;;;;;;;;;;;;;;;;5115087;28;19923;-47
2022/04/22 06:16:52;;;;;;;;;;;;;;;;;;5115320;28;19915;-49
2022/04/22 06:19:19;;;;;;;;;;;;;;;;;;5113924;28;19968;-52
2022/04/22 06:21:45;;;;;;;;;;;;;;;;;;5115155;28;19911;-54
2022/04/22 06:24:12;;;;;;;;;;;;;;;;;;5115067;28;19953;-48
2022/04/22 06:26:38;;;;;;;;;;;;;;;;;;5114650;28;19969;-53
2022/04/22 06:29:05;;;;;;;;;;;;;;;;;;5114577;28;19991;-55
2022/04/22 06:31:31;;;;;;;;;;;;;;;;;;5114008;28;20357;-51
2022/04/22 06:33:58;;;;;;;;;;;;;;;;;;5114355;28;19923;-52
2022/04/22 06:36:24;;;;;;;;;;;;;;;;;;5114440;28;19908;-50
2022/04/22 06:38:57;;;;;;;;;;;;;;;;;;5114072;28;19908;-55
2022/04/22 06:46:53;;;;;;;;;;;;;;;;;;5113811;28;19988;-49
2022/04/22 06:49:19;;;;;;;;;;;;;;;;;;5113914;28;20333;-52
2022/04/22 06:51:46;;;;;;;;;;;;;;;;;;5114232;28;19908;-47
2022/04/22 06:54:12;;;;;;;;;;;;;;;;;;5114211;28;19915;-55
2022/04/22 06:56:39;;;;;;;;;;;;;;;;;;5114150;28;19912;-56
2022/04/22 06:59:05;;;;;;;;;;;;;;;;;;5113372;28;19962;-47
2022/04/22 07:01:32;;;;;;;;;;;;;;;;;;5114229;28;20362;-56
2022/04/22 07:03:58;;;;;;;;;;;;;;;;;;5113644;28;19907;-56
2022/04/22 07:06:25;;;;;;;;;;;;;;;;;;5114355;28;19916;-50
2022/04/22 07:08:51;;;;;;;;;;;;;;;;;;5113511;28;19960;-54
2022/04/22 07:11:18;;;;;;;;;;;;;;;;;;5114000;28;20362;-49
2022/04/22 07:13:44;;;;;;;;;;;;;;;;;;5113670;28;19960;-48
2022/04/22 07:16:11;;;;;;;;;;;;;;;;;;5113441;28;19908;-48
2022/04/22 07:18:37;;;;;;;;;;;;;;;;;;5113724;28;19969;-47
2022/04/22 07:21:04;;;;;;;;;;;;;;;;;;5113225;28;19907;-52
2022/04/22 07:23:30;;;;;;;;;;;;;;;;;;5113222;28;19908;-48
2022/04/22 07:25:57;;;;;;;;;;;;;;;;;;5113319;28;19916;-49
2022/04/22 07:28:23;;;;;;;;;;;;;;;;;;5113689;28;19931;-50
2022/04/22 07:30:50;;;;;;;;;;;;;;;;;;5112467;28;19912;-51
2022/04/22 07:33:16;;;;;;;;;;;;;;;;;;5113267;28;20362;-51
2022/04/22 07:35:43;;;;;;;;;;;;;;;;;;5112734;28;20354;-50
2022/04/22 07:38:12;;;;;;;;;;;;;;;;;;5113216;28;20274;-46
2022/04/22 07:40:40;;;;;;;;;;;;;;;;;;5113508;28;19908;-54
2022/04/22 07:48:36;;;;;;;;;;;;;;;;;;5113420;28;19915;-48
2022/04/22 07:51:02;;;;;;;;;;;;;;;;;;5112889;28;19908;-48
2022/04/22 07:53:29;;;;;;;;;;;;;;;;;;5113472;28;19912;-48
2022/04/22 07:55:55;;;;;;;;;;;;;;;;;;5113364;28;20377;-53
2022/04/22 07:58:22;;;;;;;;;;;;;;;;;;5113059;28;20334;-55
2022/04/22 08:00:48;;;;;;;;;;;;;;;;;;5112493;28;19919;-44
2022/04/22 08:03:18;;;;;;;;;;;;;;;;;;5112916;28;20264;-52
2022/04/22 08:05:44;;;;;;;;;;;;;;;;;;5112690;28;20089;-53
2022/04/22 08:08:11;;;;;;;;;;;;;;;;;;5113221;28;19908;-52
2022/04/22 08:10:38;;;;;;;;;;;;;;;;;;5112325;28;19908;-54
2022/04/22 08:13:07;;;;;;;;;;;;;;;;;;5113096;28;19908;-51
2022/04/22 08:15:34;;;;;;;;;;;;;;;;;;5113424;28;19958;-53
2022/04/22 08:18:00;;;;;;;;;;;;;;;;;;5112913;28;19908;-57
2022/04/22 08:20:27;;;;;;;;;;;;;;;;;;5113047;28;19908;-56
2022/04/22 08:22:53;;;;;;;;;;;;;;;;;;5113206;28;20385;-52
2022/04/22 08:25:20;;;;;;;;;;;;;;;;;;5112433;28;19916;-54
2022/04/22 08:27:46;;;;;;;;;;;;;;;;;;5112903;28;19915;-55
2022/04/22 08:30:13;;;;;;;;;;;;;;;;;;5112740;28;19977;-55
2022/04/22 08:32:39;;;;;;;;;;;;;;;;;;5113013;28;19908;-51
2022/04/22 08:35:06;;;;;;;;;;;;;;;;;;5112700;28;19908;-51
2022/04/22 08:37:32;;;;;;;;;;;;;;;;;;5111814;28;20339;-54
2022/04/22 08:39:59;;;;;;;;;;;;;;;;;;5112798;28;19914;-51
2022/04/22 08:42:26;;;;;;;;;;;;;;;;;;5111612;28;19914;-53
2022/04/22 08:44:52;;;;;;;;;;;;;;;;;;5116889;28;20263;-52
2022/04/22 08:50:06;;;;;;;;;;;;;;;;;;5117109;28;19917;-53
2022/04/22 08:52:32;;;;;;;;;;;;;;;;;;5116720;28;19943;-52
2022/04/22 08:54:59;;;;;;;;;;;;;;;;;;5116540;28;19961;-52
2022/04/22 08:57:25;;;;;;;;;;;;;;;;;;5116244;28;19914;-56
2022/04/22 08:59:52;;;;;;;;;;;;;;;;;;5117026;28;19930;-53
2022/04/22 09:02:18;;;;;;;;;;;;;;;;;;5116391;28;19919;-44
2022/04/22 09:04:45;;;;;;;;;;;;;;;;;;5116569;28;19926;-51
2022/04/22 09:07:13;;;;;;;;;;;;;;;;;;5116785;28;19915;-54
2022/04/22 09:09:40;;;;;;;;;;;;;;;;;;5116354;28;19904;-49
2022/04/22 09:12:07;;;;;;;;;;;;;;;;;;5116651;28;19909;-54
2022/04/22 09:14:33;;;;;;;;;;;;;;;;;;5116206;28;19903;-48
2022/04/22 09:17:01;;;;;;;;;;;;;;;;;;5107661;28;20007;-55
2022/04/22 09:19:27;;;;;;;;;;;;;;;;;;5096041;28;19974;-53
2022/04/22 09:21:53;;;;;;;;;;;;;;;;;;5096326;28;19908;-45
2022/04/22 09:24:20;;;;;;;;;;;;;;;;;;5095599;28;19909;-61
2022/04/22 09:26:46;;;;;;;;;;;;;;;;;;5095899;28;19920;-54
2022/04/22 09:29:13;;;;;;;;;;;;;;;;;;5096019;28;19915;-51
2022/04/22 09:31:39;;;;;;;;;;;;;;;;;;5115404;28;20027;-47
2022/04/22 09:34:06;;;;;;;;;;;;;;;;;;5115989;28;19964;-52
2022/04/22 09:42:47;;;;;;;;;;;;;;;;;;5116147;28;19957;-57
2022/04/22 09:44:48;;;;;;;;;;;;;;;;;;5104983;28;19927;-51
2022/04/22 09:47:14;;;;;;;;;;;;;;;;;;5115932;28;19916;-52
2022/04/22 09:49:43;;;;;;;;;;;;;;;;;;5114844;28;19907;-54
2022/04/22 09:52:09;;;;;;;;;;;;;;;;;;5115234;28;19960;-50
2022/04/22 09:54:38;;;;;;;;;;;;;;;;;;5114807;28;19908;-53
2022/04/22 09:57:04;;;;;;;;;;;;;;;;;;5115493;28;19911;-51
2022/04/22 09:59:32;;;;;;;;;;;;;;;;;;5115693;28;19915;-52
2022/04/22 10:01:58;;;;;;;;;;;;;;;;;;5115675;28;19912;-57
2022/04/22 10:04:25;;;;;;;;;;;;;;;;;;5115828;28;20370;-55
2022/04/22 10:06:51;;;;;;;;;;;;;;;;;;5115406;28;20262;-49
2022/04/22 10:09:18;;;;;;;;;;;;;;;;;;5115125;28;19980;-50
2022/04/22 10:11:47;;;;;;;;;;;;;;;;;;5115259;28;19999;-52
2022/04/22 10:14:14;;;;;;;;;;;;;;;;;;5115705;27;19987;-50
2022/04/22 10:16:40;;;;;;;;;;;;;;;;;;5115738;28;19992;-55
2022/04/22 10:19:07;;;;;;;;;;;;;;;;;;5115200;28;19908;-54
2022/04/22 10:21:33;;;;;;;;;;;;;;;;;;5115642;28;20293;-55
2022/04/22 10:23:59;;;;;;;;;;;;;;;;;;5116117;28;20312;-53
2022/04/22 10:26:26;;;;;;;;;;;;;;;;;;5115028;28;19916;-58
2022/04/22 10:28:52;;;;;;;;;;;;;;;;;;5115742;28;20358;-55
2022/04/22 10:31:19;;;;;;;;;;;;;;;;;;5115089;28;20366;-50
2022/04/22 10:33:45;;;;;;;;;;;;;;;;;;5115132;28;19933;-51
2022/04/22 10:36:12;;;;;;;;;;;;;;;;;;5115156;28;19907;-54
2022/04/22 10:38:38;;;;;;;;;;;;;;;;;;5115003;28;20015;-52
2022/04/22 10:41:05;;;;;;;;;;;;;;;;;;5114931;28;19907;-54
2022/04/22 10:43:32;;;;;;;;;;;;;;;;;;5107415;28;19915;-52
2022/04/22 10:48:44;;;;;;;;;;;;;;;;;;5094672;28;19961;-53
2022/04/22 10:51:10;;;;;;;;;;;;;;;;;;5094237;28;19957;-56
2022/04/22 10:53:37;;;;;;;;;;;;;;;;;;5094532;28;19908;-56
2022/04/22 10:56:04;;;;;;;;;;;;;;;;;;5093995;28;19909;-54
2022/04/22 10:58:30;;;;;;;;;;;;;;;;;;5102605;28;19912;-55
2022/04/22 11:01:00;;;;;;;;;;;;;;;;;;5114983;28;19991;-52
2022/04/22 11:03:27;;;;;;;;;;;;;;;;;;5114409;28;19915;-53
2022/04/22 11:05:53;;;;;;;;;;;;;;;;;;5114303;28;20354;-57
2022/04/22 11:08:20;;;;;;;;;;;;;;;;;;5114330;28;19907;-54
2022/04/22 11:10:46;;;;;;;;;;;;;;;;;;5113791;28;19961;-48
2022/04/22 11:13:13;;;;;;;;;;;;;;;;;;5113210;28;19915;-50
2022/04/22 11:15:39;;;;;;;;;;;;;;;;;;5114381;28;19908;-54
2022/04/22 11:18:06;;;;;;;;;;;;;;;;;;5109258;28;19960;-56
2022/04/22 11:20:32;;;;;;;;;;;;;;;;;;5094036;28;19908;-53
2022/04/22 11:22:59;;;;;;;;;;;;;;;;;;5093898;28;19908;-55
2022/04/22 11:25:25;;;;;;;;;;;;;;;;;;5106758;28;20057;-55
2022/04/22 11:27:52;;;;;;;;;;;;;;;;;;5112505;28;19915;-52
2022/04/22 11:30:18;;;;;;;;;;;;;;;;;;5114027;28;19957;-53
2022/04/22 11:32:45;;;;;;;;;;;;;;;;;;5113779;28;19946;-50
2022/04/22 11:35:13;;;;;;;;;;;;;;;;;;5113991;28;19908;-48
2022/04/22 11:37:40;;;;;;;;;;;;;;;;;;5113788;28;19915;-51
2022/04/22 11:40:08;;;;;;;;;;;;;;;;;;5113999;28;19990;-50
2022/04/22 11:42:35;;;;;;;;;;;;;;;;;;5114007;28;20278;-46
2022/04/22 11:45:02;;;;;;;;;;;;;;;;;;5113762;28;20430;-54
2022/04/22 11:47:28;;;;;;;;;;;;;;;;;;5113954;28;19916;-49
2022/04/22 11:49:55;;;;;;;;;;;;;;;;;;5113907;28;19947;-54
2022/04/22 11:52:22;;;;;;;;;;;;;;;;;;5113500;28;20265;-57
2022/04/22 11:54:48;;;;;;;;;;;;;;;;;;5113926;28;19911;-50
2022/04/22 11:57:15;;;;;;;;;;;;;;;;;;5113409;28;19915;-54
2022/04/22 12:05:31;;;;;;;;;;;;;;;;;;5113266;28;19908;-55
2022/04/22 12:08:05;;;;;;;;;;;;;;;;;;5102001;28;19962;-53
2022/04/22 12:10:31;;;;;;;;;;;;;;;;;;5093315;28;19908;-53
2022/04/22 12:13:00;;;;;;;;;;;;;;;;;;5096524;28;19912;-53
2022/04/22 12:15:27;;;;;;;;;;;;;;;;;;5113277;28;19953;-57
2022/04/22 12:17:53;;;;;;;;;;;;;;;;;;5113196;28;19962;-51
2022/04/22 12:20:20;;;;;;;;;;;;;;;;;;5113504;28;19907;-49
2022/04/22 12:22:48;;;;;;;;;;;;;;;;;;5113330;28;20384;-52
2022/04/22 12:25:14;;;;;;;;;;;;;;;;;;5113124;28;19916;-55
2022/04/22 12:27:41;;;;;;;;;;;;;;;;;;5111806;28;19908;-51
2022/04/22 12:30:08;;;;;;;;;;;;;;;;;;5113481;28;19907;-54
2022/04/22 12:32:36;;;;;;;;;;;;;;;;;;5113199;28;20034;-54
2022/04/22 12:35:02;;;;;;;;;;;;;;;;;;5113374;28;19908;-50
2022/04/22 12:37:29;;;;;;;;;;;;;;;;;;5113348;28;19943;-52
2022/04/22 12:39:55;;;;;;;;;;;;;;;;;;5112959;28;19977;-52
2022/04/22 12:42:22;;;;;;;;;;;;;;;;;;5112989;28;19907;-49
2022/04/22 12:52:08;;;;;;;;;;;;;;;;;;5112938;28;19911;-46
2022/04/22 12:53:04;;;;;;;;;;;;;;;;;;5113327;28;19946;-48
2022/04/22 12:55:30;;;;;;;;;;;;;;;;;;5112929;28;20358;-51
2022/04/22 12:57:57;;;;;;;;;;;;;;;;;;5111874;28;20251;-48
2022/04/22 13:00:23;;;;;;;;;;;;;;;;;;5112851;28;20359;-47
2022/04/22 13:02:50;;;;;;;;;;;;;;;;;;5112912;28;20380;-48
2022/04/22 13:05:17;;;;;;;;;;;;;;;;;;5105110;28;19920;-47
2022/04/22 13:07:44;;;;;;;;;;;;;;;;;;5092761;28;19916;-51
2022/04/22 13:10:11;;;;;;;;;;;;;;;;;;5092407;28;19908;-49
2022/04/22 13:12:39;;;;;;;;;;;;;;;;;;5092444;28;19908;-51
2022/04/22 13:15:06;;;;;;;;;;;;;;;;;;5092391;28;19947;-51
2022/04/22 13:17:32;;;;;;;;;;;;;;;;;;5092799;28;19908;-51
2022/04/22 13:19:59;;;;;;;;;;;;;;;;;;5107847;28;19912;-54
2022/04/22 13:22:25;;;;;;;;;;;;;;;;;;5112838;28;19914;-54
2022/04/22 13:24:52;;;;;;;;;;;;;;;;;;5112860;28;20407;-52
2022/04/22 13:27:18;;;;;;;;;;;;;;;;;;5112396;28;19969;-56
2022/04/22 13:29:45;;;;;;;;;;;;;;;;;;5114184;28;19912;-53
2022/04/22 13:32:11;;;;;;;;;;;;;;;;;;5116316;28;20010;-56
2022/04/22 13:34:38;;;;;;;;;;;;;;;;;;5116455;28;19972;-55
2022/04/22 13:37:04;;;;;;;;;;;;;;;;;;5116469;28;19908;-57
2022/04/22 13:39:31;;;;;;;;;;;;;;;;;;5116328;28;19912;-54
2022/04/22 13:41:57;;;;;;;;;;;;;;;;;;5116554;28;19908;-54
2022/04/22 13:52:38;;;;;;;;;;;;;;;;;;5116442;28;20000;-52
2022/04/22 13:55:04;;;;;;;;;;;;;;;;;;5115982;27;19991;-50
2022/04/22 13:57:31;;;;;;;;;;;;;;;;;;5116368;28;20418;-53
2022/04/22 13:59:59;;;;;;;;;;;;;;;;;;5116434;28;20362;-59
2022/04/22 14:02:25;;;;;;;;;;;;;;;;;;5115409;28;19960;-55
2022/04/22 14:04:52;;;;;;;;;;;;;;;;;;5116203;28;19923;-53
2022/04/22 14:07:18;;;;;;;;;;;;;;;;;;5115705;28;19919;-59
2022/04/22 14:09:44;;;;;;;;;;;;;;;;;;5116293;28;19915;-53
2022/04/22 14:12:11;;;;;;;;;;;;;;;;;;5116091;28;20389;-56
2022/04/22 14:14:38;;;;;;;;;;;;;;;;;;5116181;28;20373;-46
2022/04/22 14:17:04;;;;;;;;;;;;;;;;;;5115489;27;19912;-54
2022/04/22 14:19:31;;;;;;;;;;;;;;;;;;5115915;28;19907;-50
2022/04/22 14:21:58;;;;;;;;;;;;;;;;;;5115487;28;20262;-56
2022/04/22 14:24:24;;;;;;;;;;;;;;;;;;5115665;28;19915;-54
2022/04/22 14:26:53;;;;;;;;;;;;;;;;;;5115624;28;19963;-55
2022/04/22 14:29:20;;;;;;;;;;;;;;;;;;5115515;28;19954;-55
2022/04/22 14:31:47;;;;;;;;;;;;;;;;;;5115292;28;19908;-54
2022/04/22 14:34:14;;;;;;;;;;;;;;;;;;5115601;28;19915;-54
2022/04/22 14:36:40;;;;;;;;;;;;;;;;;;5115758;28;20269;-54
2022/04/22 14:39:07;;;;;;;;;;;;;;;;;;5115396;28;20266;-47
2022/04/22 14:41:33;;;;;;;;;;;;;;;;;;5114861;28;19912;-53
2022/04/22 14:43:59;;;;;;;;;;;;;;;;;;5115560;28;19908;-53
2022/04/22 14:46:26;;;;;;;;;;;;;;;;;;5115299;28;19916;-49
2022/04/22 14:48:52;;;;;;;;;;;;;;;;;;5115315;28;19908;-52
2022/04/22 14:51:20;;;;;;;;;;;;;;;;;;5115112;28;19939;-48
2022/04/22 14:53:46;;;;;;;;;;;;;;;;;;5114974;28;19907;-45
2022/04/22 14:56:15;;;;;;;;;;;;;;;;;;5115267;28;19912;-54
2022/04/22 14:58:41;;;;;;;;;;;;;;;;;;5115078;28;19907;-54
2022/04/22 15:01:08;;;;;;;;;;;;;;;;;;5115002;28;19908;-48
2022/04/22 15:03:35;;;;;;;;;;;;;;;;;;5115222;28;19915;-54
2022/04/22 15:06:01;;;;;;;;;;;;;;;;;;5115048;28;19928;-56
2022/04/22 15:08:28;;;;;;;;;;;;;;;;;;5113738;28;20346;-54
2022/04/22 15:10:54;;;;;;;;;;;;;;;;;;5113743;28;19915;-58
2022/04/22 15:13:21;;;;;;;;;;;;;;;;;;5114990;28;19914;-55
2022/04/22 15:15:47;;;;;;;;;;;;;;;;;;5114891;28;19912;-50
2022/04/22 15:26:28;;;;;;;;;;;;;;;;;;5114301;28;19927;-48
2022/04/22 15:28:54;;;;;;;;;;;;;;;;;;5114664;28;19907;-47
2022/04/22 15:31:22;;;;;;;;;;;;;;;;;;5114338;28;19908;-50
2022/04/22 15:33:48;;;;;;;;;;;;;;;;;;5114644;28;19911;-48
2022/04/22 15:36:16;;;;;;;;;;;;;;;;;;5114625;28;20361;-51
2022/04/22 15:38:43;;;;;;;;;;;;;;;;;;5114574;27;19908;-51
2022/04/22 15:41:09;;;;;;;;;;;;;;;;;;5113920;28;19953;-57
2022/04/22 15:43:36;;;;;;;;;;;;;;;;;;5113307;28;20255;-55
2022/04/22 15:46:02;;;;;;;;;;;;;;;;;;5114329;28;19916;-52
2022/04/22 15:48:29;;;;;;;;;;;;;;;;;;5114242;28;19911;-51
2022/04/22 15:50:55;;;;;;;;;;;;;;;;;;5104969;28;19909;-56
2022/04/22 15:53:22;;;;;;;;;;;;;;;;;;5093017;28;19908;-56
2022/04/22 15:55:48;;;;;;;;;;;;;;;;;;5100860;28;19912;-53
2022/04/22 15:58:17;;;;;;;;;;;;;;;;;;5114145;28;20432;-53
2022/04/22 16:00:43;;;;;;;;;;;;;;;;;;5114136;28;19908;-54
2022/04/22 16:03:10;;;;;;;;;;;;;;;;;;5113491;28;19961;-52
2022/04/22 16:05:37;;;;;;;;;;;;;;;;;;5113704;28;19920;-54
2022/04/22 16:08:03;;;;;;;;;;;;;;;;;;5113732;28;19907;-52
2022/04/22 16:10:29;;;;;;;;;;;;;;;;;;5114062;28;19908;-51
2022/04/22 16:15:40;;;;;;;;;;;;;;;;;;5114315;28;19915;-53
2022/04/22 16:18:08;;;;;;;;;;;;;;;;;;5113940;28;20016;-51
2022/04/22 16:20:35;;;;;;;;;;;;;;;;;;5098352;28;19916;-51
2022/04/22 16:23:02;;;;;;;;;;;;;;;;;;5093694;28;19908;-54
2022/04/22 16:25:29;;;;;;;;;;;;;;;;;;5094778;28;19959;-54
2022/04/22 16:27:57;;;;;;;;;;;;;;;;;;5113934;28;19994;-56
2022/04/22 16:30:26;;;;;;;;;;;;;;;;;;5113666;28;20390;-50
2022/04/22 16:32:53;;;;;;;;;;;;;;;;;;5113465;28;19908;-54
2022/04/22 16:35:20;;;;;;;;;;;;;;;;;;5113439;28;19914;-53
2022/04/22 16:37:46;;;;;;;;;;;;;;;;;;5113575;28;20358;-55
2022/04/22 16:40:13;;;;;;;;;;;;;;;;;;5113558;28;20381;-53
2022/04/22 16:42:39;;;;;;;;;;;;;;;;;;5113032;28;20358;-53
2022/04/22 16:45:06;;;;;;;;;;;;;;;;;;5113041;28;20316;-54
2022/04/22 16:47:32;;;;;;;;;;;;;;;;;;5113626;28;20246;-55
2022/04/22 16:49:59;;;;;;;;;;;;;;;;;;5113272;28;20384;-52
2022/04/22 16:52:25;;;;;;;;;;;;;;;;;;5113368;28;19908;-54
2022/04/22 16:54:55;;;;;;;;;;;;;;;;;;5113190;28;19907;-54
2022/04/22 16:57:21;;;;;;;;;;;;;;;;;;5113183;28;19960;-55
2022/04/22 16:59:48;;;;;;;;;;;;;;;;;;5113502;28;20447;-53
2022/04/22 17:02:16;;;;;;;;;;;;;;;;;;5113845;28;19908;-55
2022/04/22 17:04:43;;;;;;;;;;;;;;;;;;5115619;28;19919;-54
2022/04/22 17:07:12;;;;;;;;;;;;;;;;;;5117247;28;19994;-51
2022/04/22 17:09:38;;;;;;;;;;;;;;;;;;5116483;28;19919;-55
2022/04/22 17:12:05;;;;;;;;;;;;;;;;;;5117054;28;20006;-55
2022/04/22 17:22:46;;;;;;;;;;;;;;;;;;5117277;28;19952;-52
2022/04/22 17:25:12;;;;;;;;;;;;;;;;;;5116381;27;19916;-50
2022/04/22 17:27:39;;;;;;;;;;;;;;;;;;5116881;28;19964;-54
2022/04/22 17:30:06;;;;;;;;;;;;;;;;;;5116570;28;20471;-53
2022/04/22 17:32:32;;;;;;;;;;;;;;;;;;5116722;28;20242;-54
2022/04/22 17:34:59;;;;;;;;;;;;;;;;;;5116426;28;19912;-52
2022/04/22 17:37:25;;;;;;;;;;;;;;;;;;5116485;28;19918;-55
2022/04/22 17:39:52;;;;;;;;;;;;;;;;;;5116754;28;19904;-54
2022/04/22 17:42:18;;;;;;;;;;;;;;;;;;5116000;28;20411;-54
2022/04/22 17:44:45;;;;;;;;;;;;;;;;;;5116466;28;19908;-55
2022/04/22 17:47:15;;;;;;;;;;;;;;;;;;5116259;28;19907;-52
2022/04/22 17:49:41;;;;;;;;;;;;;;;;;;5116492;28;19953;-53
2022/04/22 17:52:08;;;;;;;;;;;;;;;;;;5116192;28;19911;-55
2022/04/22 17:54:34;;;;;;;;;;;;;;;;;;5116196;28;19912;-57
2022/04/22 17:57:03;;;;;;;;;;;;;;;;;;5116007;28;20460;-48
2022/04/22 17:59:29;;;;;;;;;;;;;;;;;;5116105;28;19908;-56
2022/04/22 18:01:57;;;;;;;;;;;;;;;;;;5116315;28;19908;-56
2022/04/22 18:04:24;;;;;;;;;;;;;;;;;;5115620;28;20286;-54
2022/04/22 18:06:51;;;;;;;;;;;;;;;;;;5115779;28;20381;-50
2022/04/22 18:09:17;;;;;;;;;;;;;;;;;;5115783;28;19919;-51
2022/04/22 18:11:44;;;;;;;;;;;;;;;;;;5115777;28;19973;-56